TIJ weather

General Abelardo L. Rodríguez International Airport
Tijuana, Baja California, Mexico

Public forecast

Using degrees Celsius for public forecast. Weather courtesy of forecast.io.

METAR (pilot weather report)

Retrieved 2019/04/20 19:43 UTC (19 minutes ago):

MMTJ 201943Z 28013KT 10SM FEW025 19/10 A3004 RMK 8/500 HZY

TAF (pilot weather forecast)

Retrieved 2019/04/20 18:57 UTC (1 hour ago):

TAF COR MMTJ 201750Z 2018/2124 26010KT P6SM SCT020 TX23/2021Z TN14/2112Z BECMG 2102/2103 00000KT FM210900 00000KT 3SM BR OVC006 TEMPO 2112/2115 1SM BR OVC004 FM211700 24010KT 4SM HZ BKN015